Time;durP1;ratioP1;P1;durP2;ratioP2;P2;SDS_P1;SDS_P2;PMS_P1;PMS_P2;Temp;Humidity;BMP_temperature;BMP_pressure;BME280_temperature;BME280_humidity;BME280_pressure;Samples;Min_cycle;Max_cycle;Signal;HPM_P1;HPM_P2
2022/01/06 00:00:57;;;;;;;5.10;1.17;;;6.50;99.90;;;;;;4956414;28;20182;-78
2022/01/06 00:03:23;;;;;;;8.40;2.03;;;6.20;99.90;;;;;;4956329;28;20297;-78
2022/01/06 00:05:49;;;;;;;4.05;1.15;;;6.10;99.90;;;;;;4956447;28;20313;-78
2022/01/06 00:08:14;;;;;;;13.73;1.48;;;6.10;99.90;;;;;;4955976;28;20178;-84
2022/01/06 00:10:40;;;;;;;5.72;1.50;;;6.10;99.90;;;;;;4956466;28;20577;-78
2022/01/06 00:13:13;;;;;;;9.63;1.40;;;5.90;99.90;;;;;;4956230;28;20253;-84
2022/01/06 00:24:00;;;;;;;3.63;0.82;;;5.80;99.90;;;;;;4955721;29;20698;-78
2022/01/06 00:26:26;;;;;;;6.22;1.67;;;5.90;99.90;;;;;;4955848;28;20175;-77
2022/01/06 00:28:51;;;;;;;5.00;1.02;;;5.90;99.90;;;;;;4955767;28;20629;-81
2022/01/06 00:31:17;;;;;;;6.28;1.73;;;6.00;99.90;;;;;;4955605;28;20166;-78
2022/01/06 00:33:43;;;;;;;13.02;1.60;;;6.00;99.90;;;;;;4955491;28;20224;-78
2022/01/06 00:36:08;;;;;;;13.93;1.52;;;6.00;99.90;;;;;;4955521;28;20206;-79
2022/01/06 00:38:34;;;;;;;11.27;1.58;;;6.10;99.90;;;;;;4955464;28;20209;-82
2022/01/06 00:40:59;;;;;;;11.25;1.38;;;6.10;99.90;;;;;;4955523;28;20221;-77
2022/01/06 00:43:25;;;;;;;10.88;1.75;;;6.10;99.90;;;;;;4955429;28;20643;-78
2022/01/06 00:45:51;;;;;;;6.63;1.48;;;6.00;99.90;;;;;;4955424;28;20167;-78
2022/01/06 00:48:16;;;;;;;6.68;1.27;;;5.90;99.90;;;;;;4955252;28;20264;-84
2022/01/06 00:50:44;;;;;;;2.95;1.10;;;5.90;99.90;;;;;;4970821;28;20204;-85
2022/01/06 00:53:09;;;;;;;7.15;1.45;;;5.90;99.90;;;;;;4955820;28;20171;-84
2022/01/06 00:55:37;;;;;;;1.65;1.08;;;5.90;99.90;;;;;;4955508;28;20234;-78
2022/01/06 00:58:04;;;;;;;1.83;0.93;;;5.90;99.90;;;;;;4955405;28;20912;-77
2022/01/06 01:00:38;;;;;;;3.15;0.80;;;5.80;99.90;;;;;;4955198;28;20186;-78
2022/01/06 01:03:12;;;;;;;4.93;1.17;;;5.80;99.90;;;;;;4955125;28;20260;-82
2022/01/06 01:05:39;;;;;;;5.18;1.15;;;5.80;99.90;;;;;;4969790;28;20178;-78
2022/01/06 01:08:05;;;;;;;10.68;1.70;;;5.70;99.90;;;;;;4955175;28;20177;-81
2022/01/06 01:10:32;;;;;;;1.88;1.35;;;5.70;99.90;;;;;;4955176;28;20198;-79
2022/01/06 01:12:57;;;;;;;3.55;1.08;;;5.80;99.90;;;;;;4955200;28;20166;-77
2022/01/06 01:15:23;;;;;;;2.85;1.30;;;5.70;99.90;;;;;;4955199;28;20170;-78
2022/01/06 01:17:51;;;;;;;4.15;1.17;;;5.70;99.90;;;;;;4955013;28;20163;-80
2022/01/06 01:20:18;;;;;;;3.70;1.33;;;5.60;99.90;;;;;;4953990;28;20194;-78
2022/01/06 01:22:44;;;;;;;3.40;1.42;;;5.60;99.90;;;;;;4955024;29;20703;-77
2022/01/06 01:25:10;;;;;;;4.85;1.13;;;5.60;99.90;;;;;;4954824;28;20213;-77
2022/01/06 01:27:40;;;;;;;7.63;1.48;;;5.60;99.90;;;;;;4954945;28;20190;-84
2022/01/06 01:30:13;;;;;;;6.28;1.42;;;5.50;99.90;;;;;;4954664;28;20671;-77
2022/01/06 01:32:40;;;;;;;5.38;1.55;;;5.80;99.90;;;;;;4954627;28;20170;-77
2022/01/06 01:35:09;;;;;;;3.42;1.45;;;5.70;99.90;;;;;;4954661;28;20578;-83
2022/01/06 01:37:36;;;;;;;5.07;1.35;;;5.70;99.90;;;;;;4954763;28;20170;-78
2022/01/06 01:40:04;;;;;;;5.55;1.30;;;5.70;99.90;;;;;;4954323;28;20186;-78
2022/01/06 01:42:29;;;;;;;1.77;1.67;;;5.80;99.90;;;;;;4954666;28;20166;-84
2022/01/06 01:44:55;;;;;;;7.80;2.00;;;5.90;99.90;;;;;;4954468;28;20205;-77
2022/01/06 01:50:20;;;;;;;10.07;1.30;;;6.20;99.90;;;;;;4957882;28;20238;-82
2022/01/06 01:52:48;;;;;;;13.05;1.92;;;6.30;99.90;;;;;;4955484;28;20161;-78
2022/01/06 01:55:19;;;;;;;8.15;1.80;;;6.00;99.90;;;;;;4954347;28;20170;-78
2022/01/06 01:57:45;;;;;;;6.50;2.33;;;6.00;99.90;;;;;;4954503;28;20167;-84
2022/01/06 02:00:12;;;;;;;11.07;2.67;;;6.10;99.90;;;;;;4954218;28;20190;-77
2022/01/06 02:02:39;;;;;;;15.23;2.90;;;6.10;99.90;;;;;;4954313;28;20166;-78
2022/01/06 02:05:05;;;;;;;9.50;2.25;;;6.20;99.90;;;;;;4954599;28;20253;-78
2022/01/06 02:07:33;;;;;;;20.25;2.50;;;6.10;99.90;;;;;;4954576;28;20651;-77
2022/01/06 02:09:59;;;;;;;7.45;2.05;;;6.20;99.90;;;;;;4954073;28;20253;-78
2022/01/06 02:12:27;;;;;;;4.03;1.70;;;6.30;99.90;;;;;;4954303;28;20174;-77
2022/01/06 02:14:53;;;;;;;7.00;2.22;;;6.50;99.90;;;;;;4954384;28;20175;-77
2022/01/06 02:17:19;;;;;;;10.95;1.98;;;6.40;99.90;;;;;;4954380;28;20174;-77
2022/01/06 02:20:01;;;;;;;10.50;2.38;;;6.40;99.90;;;;;;4954251;28;20191;-83
2022/01/06 02:22:27;;;;;;;6.93;2.20;;;6.60;99.90;;;;;;4953999;28;20189;-78
2022/01/06 02:24:53;;;;;;;10.15;2.38;;;6.50;99.90;;;;;;4954280;28;20171;-78
2022/01/06 02:27:20;;;;;;;14.20;2.25;;;6.40;99.90;;;;;;4954313;28;20226;-84
2022/01/06 02:29:51;;;;;;;15.40;2.58;;;6.30;99.90;;;;;;4954346;28;20194;-84
2022/01/06 02:32:19;;;;;;;7.15;2.10;;;6.30;99.90;;;;;;4971979;28;20690;-78
2022/01/06 02:34:47;;;;;;;8.95;2.40;;;6.20;99.90;;;;;;4957950;28;20163;-77
2022/01/06 02:37:14;;;;;;;8.55;2.40;;;6.00;99.90;;;;;;4957603;28;20174;-77
2022/01/06 02:39:42;;;;;;;7.50;2.15;;;6.00;99.90;;;;;;4957672;28;20197;-83
2022/01/06 02:42:08;;;;;;;6.05;2.58;;;5.80;99.90;;;;;;4958076;28;20189;-77
2022/01/06 02:44:37;;;;;;;13.00;2.67;;;5.70;99.90;;;;;;4957404;28;20767;-77
2022/01/06 02:47:04;;;;;;;14.82;2.35;;;5.70;99.90;;;;;;4957773;28;20186;-78
2022/01/06 02:49:30;;;;;;;10.20;1.88;;;5.80;99.90;;;;;;4957830;28;20540;-78
2022/01/06 02:51:55;;;;;;;14.57;3.75;;;6.00;99.90;;;;;;4957351;28;20174;-77
2022/01/06 02:54:21;;;;;;;9.23;2.60;;;6.20;99.90;;;;;;4957676;28;20167;-84
2022/01/06 02:56:48;;;;;;;5.00;1.65;;;5.90;99.90;;;;;;4957232;28;20174;-77
2022/01/06 02:59:14;;;;;;;18.02;3.45;;;6.00;99.90;;;;;;4957783;28;20241;-77
2022/01/06 03:01:42;;;;;;;8.30;2.40;;;6.10;99.90;;;;;;4957363;28;20173;-77
2022/01/06 03:04:08;;;;;;;16.48;3.65;;;5.90;99.90;;;;;;4957029;28;20603;-84
2022/01/06 03:06:34;;;;;;;15.10;2.80;;;5.80;99.90;;;;;;4957384;28;20177;-80
2022/01/06 03:09:00;;;;;;;15.90;3.10;;;5.60;99.90;;;;;;4957349;28;20198;-77
2022/01/06 03:11:26;;;;;;;8.65;2.30;;;5.60;99.90;;;;;;4957126;28;20616;-79
2022/01/06 03:13:56;;;;;;;6.55;1.90;;;5.70;99.90;;;;;;4957407;28;20691;-77
2022/01/06 03:16:21;;;;;;;8.10;3.13;;;6.10;99.90;;;;;;4957444;28;20254;-76
2022/01/06 03:18:47;;;;;;;3.65;1.42;;;6.10;99.90;;;;;;4957175;28;20257;-78
2022/01/06 03:21:13;;;;;;;5.10;1.80;;;5.90;99.90;;;;;;4957075;28;20178;-79
2022/01/06 03:23:39;;;;;;;11.25;1.92;;;5.80;99.90;;;;;;4957115;28;20207;-80
2022/01/06 03:26:05;;;;;;;12.20;2.63;;;5.90;99.90;;;;;;4956876;28;20245;-84
2022/01/06 03:28:30;;;;;;;5.38;1.77;;;5.90;99.90;;;;;;4957067;28;20167;-77
2022/01/06 03:30:56;;;;;;;18.85;2.05;;;5.90;99.90;;;;;;4956777;28;20198;-77
2022/01/06 03:33:22;;;;;;;5.45;2.30;;;5.90;99.90;;;;;;4956710;28;20239;-77
2022/01/06 03:35:48;;;;;;;4.45;1.85;;;6.30;99.90;;;;;;4957032;28;20249;-78
2022/01/06 03:38:13;;;;;;;4.60;1.83;;;6.30;99.90;;;;;;4957040;28;20215;-77
2022/01/06 03:40:40;;;;;;;10.15;2.63;;;6.30;99.90;;;;;;4956347;28;20209;-77
2022/01/06 03:43:08;;;;;;;11.90;2.05;;;6.40;99.90;;;;;;4970959;28;20300;-78
2022/01/06 03:45:34;;;;;;;7.60;1.92;;;6.30;99.90;;;;;;4956694;28;20167;-77
2022/01/06 03:48:00;;;;;;;9.43;2.08;;;6.10;99.90;;;;;;4956659;28;20272;-85
2022/01/06 03:50:26;;;;;;;7.05;1.90;;;6.10;99.90;;;;;;4956240;28;20659;-76
2022/01/06 03:52:52;;;;;;;10.98;2.20;;;6.10;99.90;;;;;;4971337;28;20229;-78
2022/01/06 03:55:19;;;;;;;10.48;2.55;;;6.00;99.90;;;;;;4956404;28;20166;-78
2022/01/06 03:57:45;;;;;;;7.07;1.65;;;6.00;99.90;;;;;;4956978;28;20163;-78
2022/01/06 04:00:15;;;;;;;3.67;1.88;;;6.20;99.90;;;;;;4956257;28;20195;-78
2022/01/06 04:02:41;;;;;;;8.45;2.00;;;6.30;99.90;;;;;;4956193;28;20185;-77
2022/01/06 04:05:08;;;;;;;14.45;2.40;;;6.30;99.90;;;;;;4956064;28;20174;-77
2022/01/06 04:07:35;;;;;;;9.40;1.88;;;6.60;99.90;;;;;;4956087;28;20257;-78
2022/01/06 04:10:01;;;;;;;10.93;2.10;;;6.70;99.90;;;;;;4956100;28;20693;-78
2022/01/06 04:12:26;;;;;;;5.72;2.15;;;6.70;99.90;;;;;;4956118;28;20166;-78
2022/01/06 04:14:52;;;;;;;5.72;2.30;;;6.40;99.90;;;;;;4956120;28;20254;-84
2022/01/06 04:17:17;;;;;;;5.13;2.28;;;6.40;99.90;;;;;;4956176;28;20171;-84
2022/01/06 04:19:43;;;;;;;12.73;2.60;;;6.40;99.90;;;;;;4956283;28;20561;-82
2022/01/06 04:22:09;;;;;;;20.08;3.75;;;6.50;99.90;;;;;;4956429;28;20181;-77
2022/01/06 04:24:34;;;;;;;17.02;3.85;;;6.40;99.90;;;;;;4955910;28;20210;-81
2022/01/06 04:27:01;;;;;;;9.07;3.15;;;6.40;99.90;;;;;;4955720;28;20178;-77
2022/01/06 04:29:26;;;;;;;22.27;4.45;;;6.50;99.90;;;;;;4955631;28;20197;-77
2022/01/06 04:31:52;;;;;;;9.05;3.38;;;6.50;99.90;;;;;;4955798;28;20170;-78
2022/01/06 04:34:18;;;;;;;13.23;3.30;;;6.50;99.90;;;;;;4955627;28;20174;-84
2022/01/06 04:36:49;;;;;;;9.63;2.58;;;6.40;99.90;;;;;;4955663;28;20171;-83
2022/01/06 04:39:15;;;;;;;8.77;2.60;;;6.30;99.90;;;;;;4954207;28;20194;-83
2022/01/06 04:41:40;;;;;;;7.15;2.80;;;6.10;99.90;;;;;;4970096;28;20170;-77
2022/01/06 04:44:06;;;;;;;16.13;3.20;;;6.10;99.90;;;;;;4970318;28;20202;-78
2022/01/06 04:46:31;;;;;;;9.88;3.08;;;6.20;99.90;;;;;;4955337;28;20532;-78
2022/01/06 04:48:57;;;;;;;8.23;2.88;;;6.20;99.90;;;;;;4955341;28;20198;-77
2022/01/06 04:51:23;;;;;;;11.25;3.13;;;6.30;99.90;;;;;;4955239;28;20173;-83
2022/01/06 04:53:48;;;;;;;21.15;4.47;;;6.30;99.90;;;;;;4955360;28;20198;-77
2022/01/06 04:56:14;;;;;;;12.98;4.25;;;6.40;99.90;;;;;;4955416;28;20174;-84
2022/01/06 04:58:40;;;;;;;8.65;2.65;;;6.10;99.90;;;;;;4955423;28;20250;-85
2022/01/06 05:01:05;;;;;;;10.88;2.65;;;6.20;99.90;;;;;;4955244;28;20159;-81
2022/01/06 05:03:31;;;;;;;14.55;3.65;;;6.30;99.90;;;;;;4954886;28;20351;-77
2022/01/06 05:05:56;;;;;;;10.85;2.72;;;6.30;99.90;;;;;;4955026;28;20178;-77
2022/01/06 05:08:22;;;;;;;4.55;2.58;;;6.40;99.90;;;;;;4954876;28;20174;-77
2022/01/06 05:10:48;;;;;;;8.07;2.38;;;6.40;99.90;;;;;;4954661;28;20273;-78
2022/01/06 05:13:13;;;;;;;7.72;2.33;;;6.20;99.90;;;;;;4955032;28;20173;-78
2022/01/06 05:15:39;;;;;;;8.25;2.10;;;6.30;99.90;;;;;;4954549;28;20170;-78
2022/01/06 05:18:04;;;;;;;10.10;3.20;;;6.10;99.90;;;;;;4954491;28;20193;-78
2022/01/06 05:20:30;;;;;;;13.38;2.55;;;6.10;99.90;;;;;;4954845;28;20249;-78
2022/01/06 05:22:57;;;;;;;26.58;3.40;;;6.20;99.90;;;;;;4955135;28;20233;-78
2022/01/06 05:25:26;;;;;;;11.73;2.78;;;6.20;99.90;;;;;;4969615;28;20178;-77
2022/01/06 05:27:53;;;;;;;18.45;2.92;;;6.20;99.90;;;;;;4954889;28;20163;-77
2022/01/06 05:30:19;;;;;;;9.80;3.58;;;6.20;99.90;;;;;;4954386;28;20237;-84
2022/01/06 05:32:45;;;;;;;8.25;2.55;;;6.30;99.90;;;;;;4954403;28;20197;-78
2022/01/06 05:35:10;;;;;;;12.13;2.72;;;6.30;99.90;;;;;;4954766;28;20624;-78
2022/01/06 05:37:36;;;;;;;18.92;2.40;;;6.20;99.90;;;;;;4954482;28;20174;-77
2022/01/06 05:40:03;;;;;;;8.02;2.35;;;6.20;99.90;;;;;;4954346;28;20190;-77
2022/01/06 05:42:28;;;;;;;10.48;3.58;;;6.20;99.90;;;;;;4954565;28;20174;-77
2022/01/06 05:44:54;;;;;;;8.82;2.47;;;6.10;99.90;;;;;;4954632;29;20210;-84
2022/01/06 05:47:19;;;;;;;12.82;2.47;;;6.10;99.90;;;;;;4954728;28;20186;-78
2022/01/06 05:49:45;;;;;;;8.02;2.97;;;6.10;99.90;;;;;;4954268;28;20234;-83
2022/01/06 05:52:10;;;;;;;12.27;3.53;;;6.20;99.90;;;;;;4954413;28;20631;-78
2022/01/06 05:54:36;;;;;;;9.20;2.83;;;6.00;99.90;;;;;;4954182;28;20166;-76
2022/01/06 05:57:02;;;;;;;8.57;2.58;;;6.00;99.90;;;;;;4954056;28;20243;-76
2022/01/06 05:59:29;;;;;;;9.20;2.17;;;6.00;99.90;;;;;;4954436;28;20670;-84
2022/01/06 06:01:55;;;;;;;14.52;3.10;;;5.90;99.90;;;;;;4954407;28;20260;-77
2022/01/06 06:04:20;;;;;;;14.02;3.65;;;5.90;99.90;;;;;;4954319;28;20247;-78
2022/01/06 06:06:46;;;;;;;15.18;2.97;;;5.80;99.90;;;;;;4956424;28;20629;-78
2022/01/06 06:09:12;;;;;;;9.75;2.65;;;5.90;99.90;;;;;;4958262;28;20194;-78
2022/01/06 06:11:37;;;;;;;26.75;4.05;;;5.90;99.90;;;;;;4972913;28;20651;-77
2022/01/06 06:14:03;;;;;;;10.13;2.85;;;5.90;99.90;;;;;;4958630;28;20265;-84
2022/01/06 06:16:29;;;;;;;15.88;2.80;;;5.80;99.90;;;;;;4958424;28;20536;-85
2022/01/06 06:18:54;;;;;;;12.70;2.20;;;5.80;99.90;;;;;;4958051;28;20190;-77
2022/01/06 06:21:20;;;;;;;11.48;2.88;;;5.70;99.90;;;;;;4958014;28;20174;-85
2022/01/06 06:23:47;;;;;;;10.55;2.65;;;5.80;99.90;;;;;;4958175;28;20217;-78
2022/01/06 06:26:12;;;;;;;10.80;2.60;;;5.80;99.90;;;;;;4958300;28;20639;-78
2022/01/06 06:28:38;;;;;;;8.07;2.22;;;6.00;99.90;;;;;;4957914;28;20174;-79
2022/01/06 06:31:04;;;;;;;8.90;2.78;;;6.00;99.90;;;;;;4957913;28;20167;-82
2022/01/06 06:33:29;;;;;;;8.93;2.42;;;6.00;99.90;;;;;;4957898;28;20624;-81
2022/01/06 06:35:55;;;;;;;16.30;3.63;;;6.00;99.90;;;;;;4957730;28;20181;-78
2022/01/06 06:38:21;;;;;;;11.65;3.33;;;6.20;99.90;;;;;;4957682;28;20209;-84
2022/01/06 06:40:46;;;;;;;25.10;3.42;;;6.40;99.90;;;;;;4957737;28;20178;-78
2022/01/06 06:43:13;;;;;;;12.60;3.35;;;6.60;99.90;;;;;;4957874;28;20924;-80
2022/01/06 06:45:39;;;;;;;6.88;3.45;;;6.30;99.90;;;;;;4957723;28;20162;-85
2022/01/06 06:48:05;;;;;;;14.88;3.85;;;6.10;99.90;;;;;;4957489;28;20190;-81
2022/01/06 06:50:30;;;;;;;20.25;3.67;;;6.00;99.90;;;;;;4957447;28;20203;-78
2022/01/06 06:52:56;;;;;;;10.52;2.55;;;6.00;99.90;;;;;;4957747;28;20175;-79
2022/01/06 06:55:21;;;;;;;12.55;3.55;;;6.00;99.90;;;;;;4972014;28;20189;-84
2022/01/06 06:57:47;;;;;;;7.70;3.42;;;6.00;99.90;;;;;;4957164;28;20167;-78
2022/01/06 07:00:13;;;;;;;21.90;3.60;;;6.10;99.90;;;;;;4957664;28;20198;-84
2022/01/06 07:02:39;;;;;;;9.25;3.13;;;6.20;99.90;;;;;;4957400;28;20174;-79
2022/01/06 07:05:06;;;;;;;21.35;4.72;;;6.20;99.90;;;;;;4957286;28;20186;-79
2022/01/06 07:07:32;;;;;;;7.60;3.30;;;6.30;99.90;;;;;;4957077;28;20210;-78
2022/01/06 07:09:57;;;;;;;7.97;3.00;;;6.20;99.90;;;;;;4956943;28;20210;-79
2022/01/06 07:12:23;;;;;;;17.38;2.97;;;6.00;99.90;;;;;;4957272;28;20175;-79
2022/01/06 07:14:49;;;;;;;5.40;2.80;;;6.00;99.90;;;;;;4957053;28;20175;-78
2022/01/06 07:17:14;;;;;;;16.05;3.95;;;6.10;99.90;;;;;;4956074;28;20162;-86
2022/01/06 07:19:40;;;;;;;8.23;3.38;;;5.90;99.90;;;;;;4956735;28;20209;-78
2022/01/06 07:22:06;;;;;;;17.95;4.25;;;5.90;99.90;;;;;;4956837;28;20175;-78
2022/01/06 07:24:32;;;;;;;23.85;5.10;;;5.90;99.90;;;;;;4956863;28;20238;-82
2022/01/06 07:26:58;;;;;;;25.23;5.40;;;5.70;99.90;;;;;;4956795;28;20218;-86
2022/01/06 07:29:23;;;;;;;20.52;4.95;;;5.80;99.90;;;;;;4956760;28;20191;-78
2022/01/06 07:31:49;;;;;;;15.75;4.35;;;5.80;99.90;;;;;;4956316;28;20170;-84
2022/01/06 07:34:14;;;;;;;17.45;4.85;;;5.90;99.90;;;;;;4956865;28;20166;-78
2022/01/06 07:36:40;;;;;;;8.43;3.72;;;6.10;99.90;;;;;;4956812;28;20185;-78
2022/01/06 07:39:06;;;;;;;11.25;4.57;;;6.20;99.90;;;;;;4956164;28;20710;-79
2022/01/06 07:41:32;;;;;;;20.75;3.90;;;6.20;99.90;;;;;;4956231;28;20174;-83
2022/01/06 07:43:57;;;;;;;16.58;4.15;;;6.30;99.90;;;;;;4956552;28;20217;-78
2022/01/06 07:46:23;;;;;;;14.57;3.88;;;6.50;99.90;;;;;;4956156;28;20636;-79
2022/01/06 07:48:56;;;;;;;22.23;5.20;;;6.40;99.90;;;;;;4955944;28;20635;-78
2022/01/06 07:51:27;;;;;;;14.48;4.25;;;6.50;99.90;;;;;;4956315;28;20658;-79
2022/01/06 07:53:54;;;;;;;22.80;4.40;;;6.60;99.90;;;;;;4956560;28;20297;-80
2022/01/06 07:56:21;;;;;;;17.88;3.47;;;6.70;99.90;;;;;;4955910;28;20528;-79
2022/01/06 07:58:47;;;;;;;9.60;3.22;;;6.70;99.90;;;;;;4955927;28;20233;-79
2022/01/06 08:01:14;;;;;;;19.27;3.50;;;6.60;99.90;;;;;;4955932;28;20173;-79
2022/01/06 08:03:40;;;;;;;13.20;3.42;;;6.60;99.90;;;;;;4956062;28;20209;-79
2022/01/06 08:06:06;;;;;;;7.68;2.75;;;6.70;99.90;;;;;;4970607;28;20229;-79
2022/01/06 08:08:31;;;;;;;18.55;3.90;;;6.70;99.90;;;;;;4955865;28;20174;-79
2022/01/06 08:10:58;;;;;;;10.38;4.18;;;6.70;99.90;;;;;;4955672;28;20234;-79
2022/01/06 08:13:24;;;;;;;9.88;3.55;;;6.70;99.90;;;;;;4955825;28;20409;-78
2022/01/06 08:15:49;;;;;;;10.23;3.70;;;6.60;99.90;;;;;;4970560;28;20199;-78
2022/01/06 08:18:15;;;;;;;9.02;3.88;;;6.60;99.90;;;;;;4955589;28;20240;-78
2022/01/06 08:20:40;;;;;;;9.60;5.22;;;6.70;99.90;;;;;;4955406;28;20193;-78
2022/01/06 08:23:06;;;;;;;19.30;5.13;;;6.80;99.90;;;;;;4955977;28;20675;-78
2022/01/06 08:25:32;;;;;;;14.10;4.38;;;6.70;99.90;;;;;;4955510;28;20606;-78
2022/01/06 08:27:58;;;;;;;8.18;3.67;;;6.80;99.90;;;;;;4955272;28;20627;-80
2022/01/06 08:30:23;;;;;;;10.98;3.30;;;6.80;99.90;;;;;;4954747;28;20249;-77
2022/01/06 08:32:49;;;;;;;9.95;2.63;;;6.60;99.90;;;;;;4955122;28;20173;-77
2022/01/06 08:35:15;;;;;;;12.77;3.17;;;6.50;99.90;;;;;;4955543;28;20942;-77
2022/01/06 08:37:40;;;;;;;11.50;3.42;;;6.30;99.90;;;;;;4953608;28;20245;-77
2022/01/06 08:40:07;;;;;;;21.25;4.20;;;6.20;99.90;;;;;;4969340;28;20292;-77
2022/01/06 08:42:32;;;;;;;13.52;4.90;;;6.10;99.90;;;;;;4969551;28;20183;-78
2022/01/06 08:44:58;;;;;;;9.68;3.72;;;6.10;99.90;;;;;;4973027;28;20309;-78
2022/01/06 08:47:24;;;;;;;9.52;3.75;;;6.30;99.90;;;;;;4989499;28;20190;-80
2022/01/06 08:49:49;;;;;;;12.90;3.58;;;6.30;99.90;;;;;;4974352;28;20196;-78
2022/01/06 08:52:15;;;;;;;10.25;3.13;;;6.20;99.90;;;;;;4974259;28;20252;-79
2022/01/06 08:54:40;;;;;;;15.80;4.25;;;6.30;99.90;;;;;;4973685;28;20208;-78
2022/01/06 08:57:06;;;;;;;17.42;4.07;;;6.20;99.90;;;;;;4974425;28;20527;-79
2022/01/06 08:59:32;;;;;;;15.63;3.95;;;6.20;99.90;;;;;;4974107;28;20204;-81
2022/01/06 09:01:58;;;;;;;13.07;4.10;;;6.30;99.90;;;;;;4974243;28;20165;-78
2022/01/06 09:04:23;;;;;;;14.63;3.47;;;6.30;99.90;;;;;;4972327;28;20221;-85
2022/01/06 09:06:50;;;;;;;13.23;3.03;;;6.50;99.90;;;;;;4974106;28;20531;-79
2022/01/06 09:09:17;;;;;;;9.95;2.75;;;6.60;99.90;;;;;;4974760;28;20198;-86
2022/01/06 09:11:43;;;;;;;7.88;2.17;;;6.70;99.90;;;;;;4974648;28;20626;-79
2022/01/06 09:14:09;;;;;;;10.73;2.80;;;7.00;99.90;;;;;;4974477;28;20264;-85
2022/01/06 09:16:36;;;;;;;7.75;2.78;;;7.00;99.90;;;;;;4973947;28;20170;-79
2022/01/06 09:19:02;;;;;;;16.52;3.15;;;7.20;99.90;;;;;;4973339;28;20272;-84
2022/01/06 09:21:28;;;;;;;12.88;2.78;;;7.40;99.90;;;;;;4974662;28;20166;-85
2022/01/06 09:23:54;;;;;;;12.05;2.15;;;7.40;99.90;;;;;;4973985;28;20217;-79
2022/01/06 09:26:20;;;;;;;4.35;2.33;;;7.50;99.90;;;;;;4974442;28;20166;-85
2022/01/06 09:28:46;;;;;;;6.82;2.10;;;7.50;99.90;;;;;;4974057;28;20498;-85
2022/01/06 09:31:12;;;;;;;7.70;2.50;;;7.50;99.90;;;;;;4974139;28;20626;-86
2022/01/06 09:33:37;;;;;;;6.93;2.33;;;7.30;99.90;;;;;;4973531;28;20178;-84
2022/01/06 09:36:03;;;;;;;8.80;3.35;;;7.10;99.90;;;;;;4973278;28;20650;-78
2022/01/06 09:38:29;;;;;;;3.38;1.67;;;7.00;99.90;;;;;;4973419;28;20209;-80
2022/01/06 09:40:55;;;;;;;14.77;3.42;;;7.00;99.90;;;;;;4988262;28;20197;-83
2022/01/06 09:43:27;;;;;;;9.25;1.63;;;7.10;99.90;;;;;;4973764;28;20232;-79
2022/01/06 09:45:53;;;;;;;10.02;2.53;;;7.10;99.90;;;;;;4973916;28;20181;-80
2022/01/06 09:48:22;;;;;;;7.72;1.80;;;7.20;99.90;;;;;;4974092;28;20182;-83
2022/01/06 09:50:48;;;;;;;7.40;1.80;;;7.40;99.90;;;;;;4973729;28;20233;-87
2022/01/06 09:53:16;;;;;;;15.85;2.88;;;7.30;99.90;;;;;;4978936;28;20572;-87
2022/01/06 09:55:42;;;;;;;8.88;2.38;;;7.50;99.90;;;;;;4954396;28;20592;-78
2022/01/06 09:58:07;;;;;;;5.18;2.38;;;7.60;99.90;;;;;;4955116;28;20212;-78
2022/01/06 10:00:35;;;;;;;5.10;1.80;;;7.60;99.90;;;;;;4955963;28;20224;-85
2022/01/06 10:03:03;;;;;;;8.63;2.40;;;7.60;99.90;;;;;;4973607;28;20228;-87
2022/01/06 10:05:42;;;;;;;7.93;2.97;;;7.80;99.90;;;;;;4974063;28;20269;-88
2022/01/06 10:08:12;;;;;;;6.20;2.05;;;7.80;99.90;;;;;;4974172;28;20174;-84
2022/01/06 10:10:38;;;;;;;6.10;2.08;;;7.80;99.90;;;;;;4974185;28;20200;-85
2022/01/06 10:13:08;;;;;;;8.38;1.75;;;8.00;99.90;;;;;;4973948;28;20619;-83
2022/01/06 10:15:36;;;;;;;8.57;4.13;;;8.00;99.90;;;;;;4973031;28;20687;-84
2022/01/06 10:18:13;;;;;;;5.78;2.88;;;8.00;99.90;;;;;;4973101;28;20181;-78
2022/01/06 10:20:40;;;;;;;11.13;4.18;;;8.20;99.90;;;;;;4973663;28;20192;-78
2022/01/06 10:23:12;;;;;;;22.48;3.03;;;8.30;99.90;;;;;;4973091;28;20220;-79
2022/01/06 10:25:40;;;;;;;10.45;2.72;;;8.30;99.90;;;;;;4972813;28;20171;-82
2022/01/06 10:28:20;;;;;;;15.70;3.80;;;8.30;99.90;;;;;;4973541;28;20199;-81
2022/01/06 10:30:49;;;;;;;9.93;4.32;;;8.10;99.90;;;;;;4973016;28;20276;-77
2022/01/06 10:33:19;;;;;;;12.40;4.22;;;7.90;99.90;;;;;;4973006;28;20189;-76
2022/01/06 10:35:46;;;;;;;15.50;4.93;;;7.90;99.90;;;;;;4973161;28;20532;-77
2022/01/06 10:38:11;;;;;;;17.58;4.38;;;7.50;99.90;;;;;;4973291;28;20493;-77
2022/01/06 10:40:38;;;;;;;14.45;4.28;;;7.50;99.90;;;;;;4972588;28;20221;-78
2022/01/06 10:43:06;;;;;;;21.55;5.13;;;7.30;99.90;;;;;;4987503;28;20213;-80
2022/01/06 10:45:33;;;;;;;12.73;4.97;;;7.20;99.90;;;;;;4973021;28;20228;-80
2022/01/06 10:48:01;;;;;;;13.30;4.72;;;7.30;99.90;;;;;;4988046;28;20635;-82
2022/01/06 10:50:36;;;;;;;17.20;5.07;;;7.00;99.90;;;;;;4987922;28;20186;-78
2022/01/06 10:53:11;;;;;;;20.70;6.13;;;6.90;99.90;;;;;;4975736;28;20169;-79
2022/01/06 10:55:43;;;;;;;15.75;5.70;;;6.90;99.90;;;;;;4976231;28;20180;-79
2022/01/06 10:58:09;;;;;;;18.85;6.28;;;7.00;99.90;;;;;;4976445;28;20170;-78
2022/01/06 11:00:36;;;;;;;18.67;5.40;;;7.20;99.90;;;;;;4976195;28;20704;-78
2022/01/06 11:03:06;;;;;;;19.08;6.90;;;7.20;99.90;;;;;;4976165;28;20212;-82
2022/01/06 11:05:34;;;;;;;23.73;6.47;;;7.50;99.90;;;;;;4975535;28;20188;-78
2022/01/06 11:08:01;;;;;;;25.40;6.00;;;7.70;99.90;;;;;;4976457;28;20185;-77
2022/01/06 11:10:27;;;;;;;16.65;5.80;;;7.60;99.90;;;;;;4976336;28;20194;-78
2022/01/06 11:12:53;;;;;;;16.20;5.57;;;7.50;99.90;;;;;;4976369;28;20166;-78
2022/01/06 11:15:19;;;;;;;16.05;7.43;;;7.50;99.90;;;;;;4976089;28;20627;-79
2022/01/06 11:17:49;;;;;;;18.33;6.25;;;7.50;99.90;;;;;;4976364;28;20201;-78
2022/01/06 11:20:27;;;;;;;21.58;6.13;;;7.50;99.90;;;;;;4976111;28;20198;-78
2022/01/06 11:22:55;;;;;;;21.30;6.90;;;7.40;99.90;;;;;;4991651;28;20203;-79
2022/01/06 11:25:30;;;;;;;29.70;6.20;;;7.50;99.90;;;;;;4975879;28;20615;-78
2022/01/06 11:28:09;;;;;;;15.23;6.18;;;7.80;99.90;;;;;;4975972;28;20220;-78
2022/01/06 11:30:45;;;;;;;14.15;6.07;;;7.60;99.90;;;;;;4974650;28;20606;-78
2022/01/06 11:33:11;;;;;;;21.42;6.07;;;7.60;99.90;;;;;;4975751;28;20192;-82
2022/01/06 11:35:50;;;;;;;18.63;6.32;;;7.70;99.90;;;;;;4976037;28;20177;-79
2022/01/06 11:38:19;;;;;;;30.42;7.63;;;7.70;99.90;;;;;;4975706;28;20181;-79
2022/01/06 11:40:46;;;;;;;15.23;6.25;;;7.80;99.90;;;;;;4975612;28;20431;-78
2022/01/06 11:43:12;;;;;;;16.23;7.40;;;7.70;99.90;;;;;;4975487;28;20194;-78
2022/01/06 11:45:38;;;;;;;26.05;7.32;;;7.40;99.90;;;;;;4975340;28;20819;-78
2022/01/06 11:48:03;;;;;;;15.55;6.82;;;7.30;99.90;;;;;;4975461;28;20189;-78
2022/01/06 11:50:38;;;;;;;18.80;6.80;;;7.10;99.90;;;;;;4975466;28;20189;-77
2022/01/06 11:53:04;;;;;;;11.82;7.07;;;7.00;99.90;;;;;;4975663;28;20248;-78
2022/01/06 11:55:48;;;;;;;19.58;6.40;;;6.80;99.90;;;;;;4975336;28;20170;-78
2022/01/06 11:58:19;;;;;;;16.38;7.38;;;6.80;99.90;;;;;;4975590;28;20177;-77
2022/01/06 12:01:06;;;;;;;20.50;7.35;;;6.80;99.90;;;;;;4975725;28;20188;-78
2022/01/06 12:03:46;;;;;;;26.75;9.45;;;6.70;99.90;;;;;;4974739;28;20598;-79
2022/01/06 12:06:41;;;;;;;21.83;7.60;;;6.70;99.90;;;;;;4975408;28;20682;-78
2022/01/06 12:09:23;;;;;;;22.05;8.20;;;6.80;99.90;;;;;;4974761;28;20213;-78
2022/01/06 12:12:07;;;;;;;18.88;8.38;;;6.60;99.90;;;;;;4974998;28;20162;-78
2022/01/06 12:14:33;;;;;;;18.80;8.07;;;6.50;99.90;;;;;;4975612;28;20181;-78
2022/01/06 12:17:07;;;;;;;18.27;9.35;;;6.40;99.90;;;;;;4975307;28;20177;-78
2022/01/06 12:19:33;;;;;;;27.70;10.20;;;6.40;99.90;;;;;;4975151;28;20293;-78
2022/01/06 12:21:59;;;;;;;30.35;9.98;;;6.60;99.90;;;;;;4974864;28;20166;-78
2022/01/06 12:24:25;;;;;;;18.63;9.55;;;6.80;99.90;;;;;;4989571;28;20217;-78
2022/01/06 12:26:51;;;;;;;24.23;9.88;;;7.00;99.90;;;;;;4974878;28;20225;-78
2022/01/06 12:29:19;;;;;;;38.65;10.43;;;6.90;99.90;;;;;;4974683;28;20598;-78
2022/01/06 12:31:45;;;;;;;21.08;9.95;;;7.00;99.90;;;;;;4975004;28;20176;-78
2022/01/06 12:34:12;;;;;;;30.63;10.63;;;7.10;99.90;;;;;;4989903;28;20185;-78
2022/01/06 12:36:42;;;;;;;18.70;9.93;;;7.10;99.90;;;;;;4974584;28;20202;-79
2022/01/06 12:39:20;;;;;;;24.50;9.95;;;7.00;99.90;;;;;;4974300;28;20190;-78
2022/01/06 12:41:48;;;;;;;25.00;9.10;;;6.70;99.90;;;;;;4975097;28;20257;-78
2022/01/06 12:44:21;;;;;;;25.55;10.20;;;6.70;99.90;;;;;;4974671;28;20670;-78
2022/01/06 12:46:48;;;;;;;28.25;11.55;;;6.90;99.90;;;;;;4989224;28;20284;-80
2022/01/06 12:49:14;;;;;;;17.02;10.05;;;7.10;99.90;;;;;;4974566;28;20190;-78
2022/01/06 12:51:45;;;;;;;23.10;10.85;;;6.90;99.90;;;;;;4973429;28;20253;-78
2022/01/06 12:54:17;;;;;;;26.30;11.27;;;6.80;99.90;;;;;;4974652;28;20169;-78
2022/01/06 12:57:01;;;;;;;37.67;10.27;;;7.10;99.90;;;;;;4989327;28;20181;-78
2022/01/06 12:59:37;;;;;;;30.65;11.00;;;7.10;99.90;;;;;;4974133;28;20197;-78
2022/01/06 13:02:05;;;;;;;28.55;11.48;;;7.20;99.90;;;;;;4974234;28;20252;-79